sensor_id;sensor_type;location;lat;lon;timestamp;temperature;humidity
18225;DHT22;9237;48.590;8.854;2022-08-19T00:01:16;19.70;99.90
18225;DHT22;9237;48.590;8.854;2022-08-19T00:03:43;19.80;99.90
18225;DHT22;9237;48.590;8.854;2022-08-19T00:06:10;19.70;99.90
18225;DHT22;9237;48.590;8.854;2022-08-19T00:08:37;19.80;99.90
18225;DHT22;9237;48.590;8.854;2022-08-19T00:11:04;19.80;99.90
18225;DHT22;9237;48.590;8.854;2022-08-19T00:13:31;19.80;99.90
18225;DHT22;9237;48.590;8.854;2022-08-19T00:16:00;19.80;99.90
18225;DHT22;9237;48.590;8.854;2022-08-19T00:18:27;19.70;99.90
18225;DHT22;9237;48.590;8.854;2022-08-19T00:20:54;19.70;99.90
18225;DHT22;9237;48.590;8.854;2022-08-19T00:23:21;19.70;99.90
18225;DHT22;9237;48.590;8.854;2022-08-19T00:25:48;19.70;99.90
18225;DHT22;9237;48.590;8.854;2022-08-19T00:28:16;19.70;99.90
18225;DHT22;9237;48.590;8.854;2022-08-19T00:30:43;19.70;99.90
18225;DHT22;9237;48.590;8.854;2022-08-19T00:33:11;19.70;99.90
18225;DHT22;9237;48.590;8.854;2022-08-19T00:35:39;19.60;99.90
18225;DHT22;9237;48.590;8.854;2022-08-19T00:38:05;19.50;99.90
18225;DHT22;9237;48.590;8.854;2022-08-19T00:40:33;19.50;99.90
18225;DHT22;9237;48.590;8.854;2022-08-19T00:43:00;19.50;99.90
18225;DHT22;9237;48.590;8.854;2022-08-19T00:45:28;19.50;99.90
18225;DHT22;9237;48.590;8.854;2022-08-19T00:47:57;19.50;99.90
18225;DHT22;9237;48.590;8.854;2022-08-19T00:50:31;19.40;99.90
18225;DHT22;9237;48.590;8.854;2022-08-19T00:52:58;19.40;99.90
18225;DHT22;9237;48.590;8.854;2022-08-19T00:55:26;19.40;99.90
18225;DHT22;9237;48.590;8.854;2022-08-19T00:57:57;19.30;99.90
18225;DHT22;9237;48.590;8.854;2022-08-19T01:00:26;19.30;99.90
18225;DHT22;9237;48.590;8.854;2022-08-19T01:02:53;19.20;99.90
18225;DHT22;9237;48.590;8.854;2022-08-19T01:05:22;19.10;99.90
18225;DHT22;9237;48.590;8.854;2022-08-19T01:07:51;19.10;99.90
18225;DHT22;9237;48.590;8.854;2022-08-19T01:10:23;19.10;99.90
18225;DHT22;9237;48.590;8.854;2022-08-19T01:12:51;19.10;99.90
18225;DHT22;9237;48.590;8.854;2022-08-19T01:15:21;19.10;99.90
18225;DHT22;9237;48.590;8.854;2022-08-19T01:17:49;19.10;99.90
18225;DHT22;9237;48.590;8.854;2022-08-19T01:20:21;19.00;99.90
18225;DHT22;9237;48.590;8.854;2022-08-19T01:22:52;19.00;99.90
18225;DHT22;9237;48.590;8.854;2022-08-19T01:25:22;19.00;99.90
18225;DHT22;9237;48.590;8.854;2022-08-19T01:27:51;19.00;99.90
18225;DHT22;9237;48.590;8.854;2022-08-19T01:30:23;19.00;99.90
18225;DHT22;9237;48.590;8.854;2022-08-19T01:32:51;18.90;99.90
18225;DHT22;9237;48.590;8.854;2022-08-19T01:35:20;18.80;99.90
18225;DHT22;9237;48.590;8.854;2022-08-19T01:37:52;18.70;99.90
18225;DHT22;9237;48.590;8.854;2022-08-19T01:40:22;18.50;99.90
18225;DHT22;9237;48.590;8.854;2022-08-19T01:42:50;18.30;99.90
18225;DHT22;9237;48.590;8.854;2022-08-19T01:45:18;18.20;99.90
18225;DHT22;9237;48.590;8.854;2022-08-19T01:47:45;18.00;99.90
18225;DHT22;9237;48.590;8.854;2022-08-19T01:50:12;17.90;99.90
18225;DHT22;9237;48.590;8.854;2022-08-19T01:52:41;17.90;99.90
18225;DHT22;9237;48.590;8.854;2022-08-19T01:55:13;17.80;99.90
18225;DHT22;9237;48.590;8.854;2022-08-19T01:57:44;17.80;99.90
18225;DHT22;9237;48.590;8.854;2022-08-19T02:00:13;17.70;99.90
18225;DHT22;9237;48.590;8.854;2022-08-19T02:02:41;17.70;99.90
18225;DHT22;9237;48.590;8.854;2022-08-19T02:05:09;17.60;99.90
18225;DHT22;9237;48.590;8.854;2022-08-19T02:07:37;17.60;99.90
18225;DHT22;9237;48.590;8.854;2022-08-19T02:10:07;17.60;99.90
18225;DHT22;9237;48.590;8.854;2022-08-19T02:12:36;17.50;99.90
18225;DHT22;9237;48.590;8.854;2022-08-19T02:15:03;17.50;99.90
18225;DHT22;9237;48.590;8.854;2022-08-19T02:17:31;17.50;99.90
18225;DHT22;9237;48.590;8.854;2022-08-19T02:19:58;17.50;99.90
18225;DHT22;9237;48.590;8.854;2022-08-19T02:22:26;17.40;99.90
18225;DHT22;9237;48.590;8.854;2022-08-19T02:24:53;17.40;99.90
18225;DHT22;9237;48.590;8.854;2022-08-19T02:27:20;17.40;99.90
18225;DHT22;9237;48.590;8.854;2022-08-19T02:29:50;17.40;99.90
18225;DHT22;9237;48.590;8.854;2022-08-19T02:32:17;17.40;99.90
18225;DHT22;9237;48.590;8.854;2022-08-19T02:34:45;17.50;99.90
18225;DHT22;9237;48.590;8.854;2022-08-19T02:37:12;17.50;99.90
18225;DHT22;9237;48.590;8.854;2022-08-19T02:39:53;17.50;99.90
18225;DHT22;9237;48.590;8.854;2022-08-19T02:42:19;17.50;99.90
18225;DHT22;9237;48.590;8.854;2022-08-19T02:44:46;17.50;99.90
18225;DHT22;9237;48.590;8.854;2022-08-19T02:47:15;17.50;99.90
18225;DHT22;9237;48.590;8.854;2022-08-19T02:49:42;17.50;99.90
18225;DHT22;9237;48.590;8.854;2022-08-19T02:52:08;17.60;99.90
18225;DHT22;9237;48.590;8.854;2022-08-19T02:54:36;17.60;99.90
18225;DHT22;9237;48.590;8.854;2022-08-19T02:57:04;17.60;99.90
18225;DHT22;9237;48.590;8.854;2022-08-19T02:59:31;17.70;99.90
18225;DHT22;9237;48.590;8.854;2022-08-19T03:01:58;17.70;99.90
18225;DHT22;9237;48.590;8.854;2022-08-19T03:04:26;17.80;99.90
18225;DHT22;9237;48.590;8.854;2022-08-19T03:06:55;17.80;99.90
18225;DHT22;9237;48.590;8.854;2022-08-19T03:09:22;17.80;99.90
18225;DHT22;9237;48.590;8.854;2022-08-19T03:11:49;17.80;99.90
18225;DHT22;9237;48.590;8.854;2022-08-19T03:14:16;17.80;99.90
18225;DHT22;9237;48.590;8.854;2022-08-19T03:16:46;17.90;99.90
18225;DHT22;9237;48.590;8.854;2022-08-19T03:19:15;17.90;99.90
18225;DHT22;9237;48.590;8.854;2022-08-19T03:21:44;17.80;99.90
18225;DHT22;9237;48.590;8.854;2022-08-19T03:24:11;17.90;99.90
18225;DHT22;9237;48.590;8.854;2022-08-19T03:26:39;17.90;99.90
18225;DHT22;9237;48.590;8.854;2022-08-19T03:29:07;17.90;99.90
18225;DHT22;9237;48.590;8.854;2022-08-19T03:31:37;17.90;99.90
18225;DHT22;9237;48.590;8.854;2022-08-19T03:34:04;18.00;99.90
18225;DHT22;9237;48.590;8.854;2022-08-19T03:36:31;17.90;99.90
18225;DHT22;9237;48.590;8.854;2022-08-19T03:39:01;17.90;99.90
18225;DHT22;9237;48.590;8.854;2022-08-19T03:41:30;17.90;99.90
18225;DHT22;9237;48.590;8.854;2022-08-19T03:43:57;17.90;99.90
18225;DHT22;9237;48.590;8.854;2022-08-19T03:46:28;17.80;99.90
18225;DHT22;9237;48.590;8.854;2022-08-19T03:48:57;17.70;99.90
18225;DHT22;9237;48.590;8.854;2022-08-19T03:51:27;17.80;99.90
18225;DHT22;9237;48.590;8.854;2022-08-19T03:53:58;17.80;99.90
18225;DHT22;9237;48.590;8.854;2022-08-19T03:56:27;17.80;99.90
18225;DHT22;9237;48.590;8.854;2022-08-19T03:58:54;17.90;99.90
18225;DHT22;9237;48.590;8.854;2022-08-19T04:01:23;17.90;99.90
18225;DHT22;9237;48.590;8.854;2022-08-19T04:03:52;17.90;99.90
18225;DHT22;9237;48.590;8.854;2022-08-19T04:06:21;17.80;99.90
18225;DHT22;9237;48.590;8.854;2022-08-19T04:08:50;17.80;99.90
18225;DHT22;9237;48.590;8.854;2022-08-19T04:11:21;17.80;99.90
18225;DHT22;9237;48.590;8.854;2022-08-19T04:13:51;17.80;99.90
18225;DHT22;9237;48.590;8.854;2022-08-19T04:16:18;17.80;99.90
18225;DHT22;9237;48.590;8.854;2022-08-19T04:18:47;17.80;99.90
18225;DHT22;9237;48.590;8.854;2022-08-19T04:21:17;17.80;99.90
18225;DHT22;9237;48.590;8.854;2022-08-19T04:23:44;17.80;99.90
18225;DHT22;9237;48.590;8.854;2022-08-19T04:26:13;17.80;99.90
18225;DHT22;9237;48.590;8.854;2022-08-19T04:28:41;17.80;99.90
18225;DHT22;9237;48.590;8.854;2022-08-19T04:31:12;17.80;99.90
18225;DHT22;9237;48.590;8.854;2022-08-19T04:33:40;17.80;99.90
18225;DHT22;9237;48.590;8.854;2022-08-19T04:36:14;17.80;99.90
18225;DHT22;9237;48.590;8.854;2022-08-19T04:38:42;17.80;99.90
18225;DHT22;9237;48.590;8.854;2022-08-19T04:41:09;17.90;99.90
18225;DHT22;9237;48.590;8.854;2022-08-19T04:43:53;17.90;99.90
18225;DHT22;9237;48.590;8.854;2022-08-19T04:46:21;17.90;99.90
18225;DHT22;9237;48.590;8.854;2022-08-19T04:48:48;17.80;99.90
18225;DHT22;9237;48.590;8.854;2022-08-19T04:51:15;17.90;99.90
18225;DHT22;9237;48.590;8.854;2022-08-19T04:53:42;18.00;99.90
18225;DHT22;9237;48.590;8.854;2022-08-19T04:56:11;18.00;99.90
18225;DHT22;9237;48.590;8.854;2022-08-19T04:58:39;18.00;99.90
18225;DHT22;9237;48.590;8.854;2022-08-19T05:01:08;18.10;99.90
18225;DHT22;9237;48.590;8.854;2022-08-19T05:03:37;18.00;99.90
18225;DHT22;9237;48.590;8.854;2022-08-19T05:06:06;18.00;99.90
18225;DHT22;9237;48.590;8.854;2022-08-19T05:08:34;18.00;99.90
18225;DHT22;9237;48.590;8.854;2022-08-19T05:11:08;18.10;99.90
18225;DHT22;9237;48.590;8.854;2022-08-19T05:13:36;18.20;99.90
18225;DHT22;9237;48.590;8.854;2022-08-19T05:16:04;18.20;99.90
18225;DHT22;9237;48.590;8.854;2022-08-19T05:18:31;18.20;99.90
18225;DHT22;9237;48.590;8.854;2022-08-19T05:21:18;18.20;99.90
18225;DHT22;9237;48.590;8.854;2022-08-19T05:24:04;18.20;99.90
18225;DHT22;9237;48.590;8.854;2022-08-19T05:26:34;18.30;99.90
18225;DHT22;9237;48.590;8.854;2022-08-19T05:29:01;18.30;99.90
18225;DHT22;9237;48.590;8.854;2022-08-19T05:31:28;18.30;99.90
18225;DHT22;9237;48.590;8.854;2022-08-19T05:33:55;18.40;99.90
18225;DHT22;9237;48.590;8.854;2022-08-19T05:36:25;18.40;99.90
18225;DHT22;9237;48.590;8.854;2022-08-19T05:38:52;18.40;99.90
18225;DHT22;9237;48.590;8.854;2022-08-19T05:41:20;18.40;99.90
18225;DHT22;9237;48.590;8.854;2022-08-19T05:43:48;18.40;99.90
18225;DHT22;9237;48.590;8.854;2022-08-19T05:46:18;18.40;99.90
18225;DHT22;9237;48.590;8.854;2022-08-19T05:48:45;18.40;99.90
18225;DHT22;9237;48.590;8.854;2022-08-19T05:51:12;18.40;99.90
18225;DHT22;9237;48.590;8.854;2022-08-19T05:53:41;18.50;99.90
18225;DHT22;9237;48.590;8.854;2022-08-19T05:56:10;18.50;99.90
18225;DHT22;9237;48.590;8.854;2022-08-19T05:58:38;18.60;99.90
18225;DHT22;9237;48.590;8.854;2022-08-19T06:01:10;18.60;99.90
18225;DHT22;9237;48.590;8.854;2022-08-19T06:03:37;18.60;99.90
18225;DHT22;9237;48.590;8.854;2022-08-19T06:06:05;18.60;99.90
18225;DHT22;9237;48.590;8.854;2022-08-19T06:08:33;18.60;99.90
18225;DHT22;9237;48.590;8.854;2022-08-19T06:11:15;18.60;99.90
18225;DHT22;9237;48.590;8.854;2022-08-19T06:13:43;18.60;99.90
18225;DHT22;9237;48.590;8.854;2022-08-19T06:16:10;18.70;99.90
18225;DHT22;9237;48.590;8.854;2022-08-19T06:18:37;18.70;99.90
18225;DHT22;9237;48.590;8.854;2022-08-19T06:21:04;18.60;99.90
18225;DHT22;9237;48.590;8.854;2022-08-19T06:23:31;18.60;99.90
18225;DHT22;9237;48.590;8.854;2022-08-19T06:25:58;18.70;99.90
18225;DHT22;9237;48.590;8.854;2022-08-19T06:28:26;18.70;99.90
18225;DHT22;9237;48.590;8.854;2022-08-19T06:30:53;18.70;99.90
18225;DHT22;9237;48.590;8.854;2022-08-19T06:33:20;18.70;99.90
18225;DHT22;9237;48.590;8.854;2022-08-19T06:35:47;18.70;99.90
18225;DHT22;9237;48.590;8.854;2022-08-19T06:38:14;18.80;99.90
18225;DHT22;9237;48.590;8.854;2022-08-19T06:40:41;18.70;99.90
18225;DHT22;9237;48.590;8.854;2022-08-19T06:43:08;18.80;99.90
18225;DHT22;9237;48.590;8.854;2022-08-19T06:45:37;18.80;99.90
18225;DHT22;9237;48.590;8.854;2022-08-19T06:48:04;18.80;99.90
18225;DHT22;9237;48.590;8.854;2022-08-19T06:50:32;18.90;99.90
18225;DHT22;9237;48.590;8.854;2022-08-19T06:52:59;18.90;99.90
18225;DHT22;9237;48.590;8.854;2022-08-19T06:55:26;19.00;99.90
18225;DHT22;9237;48.590;8.854;2022-08-19T06:57:54;19.10;99.90
18225;DHT22;9237;48.590;8.854;2022-08-19T07:00:21;19.20;99.90
18225;DHT22;9237;48.590;8.854;2022-08-19T07:02:49;19.30;99.90
18225;DHT22;9237;48.590;8.854;2022-08-19T07:05:16;19.40;99.90
18225;DHT22;9237;48.590;8.854;2022-08-19T07:07:43;19.50;99.90
18225;DHT22;9237;48.590;8.854;2022-08-19T07:10:10;19.50;99.90
18225;DHT22;9237;48.590;8.854;2022-08-19T07:12:37;19.50;99.90
18225;DHT22;9237;48.590;8.854;2022-08-19T07:15:07;19.50;99.90
18225;DHT22;9237;48.590;8.854;2022-08-19T07:17:36;19.60;99.90
18225;DHT22;9237;48.590;8.854;2022-08-19T07:20:07;19.60;99.90
18225;DHT22;9237;48.590;8.854;2022-08-19T07:22:34;19.50;99.90
18225;DHT22;9237;48.590;8.854;2022-08-19T07:25:01;19.40;99.90
18225;DHT22;9237;48.590;8.854;2022-08-19T07:27:29;19.40;99.90
18225;DHT22;9237;48.590;8.854;2022-08-19T07:29:56;19.40;99.90
18225;DHT22;9237;48.590;8.854;2022-08-19T07:32:23;19.60;99.90
18225;DHT22;9237;48.590;8.854;2022-08-19T07:34:51;19.60;99.90
18225;DHT22;9237;48.590;8.854;2022-08-19T07:37:20;19.70;99.90
18225;DHT22;9237;48.590;8.854;2022-08-19T07:39:47;19.60;99.90
18225;DHT22;9237;48.590;8.854;2022-08-19T07:42:14;19.70;99.90
18225;DHT22;9237;48.590;8.854;2022-08-19T07:44:43;19.70;99.90
18225;DHT22;9237;48.590;8.854;2022-08-19T07:47:10;19.80;99.90
18225;DHT22;9237;48.590;8.854;2022-08-19T07:49:38;19.90;99.90
18225;DHT22;9237;48.590;8.854;2022-08-19T07:52:07;19.90;99.90
18225;DHT22;9237;48.590;8.854;2022-08-19T07:54:37;19.90;99.90
18225;DHT22;9237;48.590;8.854;2022-08-19T07:57:05;20.00;99.90
18225;DHT22;9237;48.590;8.854;2022-08-19T07:59:33;20.00;99.90
18225;DHT22;9237;48.590;8.854;2022-08-19T08:02:02;20.10;99.90
18225;DHT22;9237;48.590;8.854;2022-08-19T08:04:30;20.20;99.90
18225;DHT22;9237;48.590;8.854;2022-08-19T08:07:15;20.40;99.90
18225;DHT22;9237;48.590;8.854;2022-08-19T08:10:02;20.50;99.90
18225;DHT22;9237;48.590;8.854;2022-08-19T08:12:31;20.60;99.90
18225;DHT22;9237;48.590;8.854;2022-08-19T08:15:00;20.50;99.90
18225;DHT22;9237;48.590;8.854;2022-08-19T08:17:29;20.40;99.90
18225;DHT22;9237;48.590;8.854;2022-08-19T08:19:56;20.40;99.90
18225;DHT22;9237;48.590;8.854;2022-08-19T08:22:24;20.40;99.90
18225;DHT22;9237;48.590;8.854;2022-08-19T08:25:12;20.80;99.90
18225;DHT22;9237;48.590;8.854;2022-08-19T08:27:41;20.60;99.90
18225;DHT22;9237;48.590;8.854;2022-08-19T08:30:09;20.70;99.90
18225;DHT22;9237;48.590;8.854;2022-08-19T08:32:37;20.80;99.90
18225;DHT22;9237;48.590;8.854;2022-08-19T08:35:05;20.90;99.90
18225;DHT22;9237;48.590;8.854;2022-08-19T08:37:32;21.00;99.90
18225;DHT22;9237;48.590;8.854;2022-08-19T08:40:03;21.00;99.90
18225;DHT22;9237;48.590;8.854;2022-08-19T08:42:36;21.00;99.90
18225;DHT22;9237;48.590;8.854;2022-08-19T08:45:12;21.10;99.90
18225;DHT22;9237;48.590;8.854;2022-08-19T08:47:44;21.20;99.90
18225;DHT22;9237;48.590;8.854;2022-08-19T08:50:17;21.30;99.90
18225;DHT22;9237;48.590;8.854;2022-08-19T08:52:47;21.30;99.90
18225;DHT22;9237;48.590;8.854;2022-08-19T08:55:18;21.20;99.90
18225;DHT22;9237;48.590;8.854;2022-08-19T08:57:53;21.20;99.90
18225;DHT22;9237;48.590;8.854;2022-08-19T09:00:24;21.10;99.90
18225;DHT22;9237;48.590;8.854;2022-08-19T09:02:52;21.10;99.90
18225;DHT22;9237;48.590;8.854;2022-08-19T09:05:19;21.30;99.90
18225;DHT22;9237;48.590;8.854;2022-08-19T09:07:53;21.30;99.90
18225;DHT22;9237;48.590;8.854;2022-08-19T09:10:31;21.40;99.90
18225;DHT22;9237;48.590;8.854;2022-08-19T09:13:08;21.40;99.90
18225;DHT22;9237;48.590;8.854;2022-08-19T09:15:42;21.40;99.90
18225;DHT22;9237;48.590;8.854;2022-08-19T09:18:10;21.30;99.90
18225;DHT22;9237;48.590;8.854;2022-08-19T09:20:37;21.20;99.90
18225;DHT22;9237;48.590;8.854;2022-08-19T09:23:04;21.10;99.90
18225;DHT22;9237;48.590;8.854;2022-08-19T09:25:31;21.10;99.90
18225;DHT22;9237;48.590;8.854;2022-08-19T09:28:01;21.20;99.90
18225;DHT22;9237;48.590;8.854;2022-08-19T09:30:32;21.20;99.90
18225;DHT22;9237;48.590;8.854;2022-08-19T09:33:00;21.10;99.90
18225;DHT22;9237;48.590;8.854;2022-08-19T09:35:29;21.10;99.90
18225;DHT22;9237;48.590;8.854;2022-08-19T09:37:56;21.10;99.90
18225;DHT22;9237;48.590;8.854;2022-08-19T09:40:24;21.20;99.90
18225;DHT22;9237;48.590;8.854;2022-08-19T09:42:52;21.30;99.90
18225;DHT22;9237;48.590;8.854;2022-08-19T09:45:21;21.30;99.90
18225;DHT22;9237;48.590;8.854;2022-08-19T09:47:49;21.20;99.90
18225;DHT22;9237;48.590;8.854;2022-08-19T09:50:16;21.20;99.90
18225;DHT22;9237;48.590;8.854;2022-08-19T09:52:44;21.10;99.90
18225;DHT22;9237;48.590;8.854;2022-08-19T09:55:11;21.00;99.90
18225;DHT22;9237;48.590;8.854;2022-08-19T09:57:38;21.00;99.90
18225;DHT22;9237;48.590;8.854;2022-08-19T10:00:08;21.10;99.90
18225;DHT22;9237;48.590;8.854;2022-08-19T10:02:36;21.10;99.90
18225;DHT22;9237;48.590;8.854;2022-08-19T10:05:04;21.10;99.90
18225;DHT22;9237;48.590;8.854;2022-08-19T10:07:48;21.10;99.90
18225;DHT22;9237;48.590;8.854;2022-08-19T10:10:15;21.20;99.90
18225;DHT22;9237;48.590;8.854;2022-08-19T10:12:42;21.10;99.90
18225;DHT22;9237;48.590;8.854;2022-08-19T10:15:11;21.20;99.90
18225;DHT22;9237;48.590;8.854;2022-08-19T10:17:40;21.10;99.90
18225;DHT22;9237;48.590;8.854;2022-08-19T10:20:07;21.10;99.90
18225;DHT22;9237;48.590;8.854;2022-08-19T10:22:34;21.10;99.90
18225;DHT22;9237;48.590;8.854;2022-08-19T10:25:07;21.10;99.90
18225;DHT22;9237;48.590;8.854;2022-08-19T10:27:48;21.20;99.90
18225;DHT22;9237;48.590;8.854;2022-08-19T10:30:15;21.20;99.90
18225;DHT22;9237;48.590;8.854;2022-08-19T10:32:43;21.20;99.90
18225;DHT22;9237;48.590;8.854;2022-08-19T10:35:11;21.20;99.90
18225;DHT22;9237;48.590;8.854;2022-08-19T10:37:39;21.30;99.90
18225;DHT22;9237;48.590;8.854;2022-08-19T10:40:08;21.50;99.90
18225;DHT22;9237;48.590;8.854;2022-08-19T10:42:36;21.50;99.90
18225;DHT22;9237;48.590;8.854;2022-08-19T10:45:05;21.50;99.90
18225;DHT22;9237;48.590;8.854;2022-08-19T10:47:32;21.50;99.90
18225;DHT22;9237;48.590;8.854;2022-08-19T10:50:01;21.60;99.90
18225;DHT22;9237;48.590;8.854;2022-08-19T10:52:48;21.80;99.90
18225;DHT22;9237;48.590;8.854;2022-08-19T10:55:17;21.90;99.90
18225;DHT22;9237;48.590;8.854;2022-08-19T10:58:01;21.90;99.90
18225;DHT22;9237;48.590;8.854;2022-08-19T11:00:28;21.90;99.90
18225;DHT22;9237;48.590;8.854;2022-08-19T11:02:56;21.80;99.90
18225;DHT22;9237;48.590;8.854;2022-08-19T11:05:24;21.90;99.90
18225;DHT22;9237;48.590;8.854;2022-08-19T11:07:51;21.90;99.90
18225;DHT22;9237;48.590;8.854;2022-08-19T11:10:18;22.00;99.90
18225;DHT22;9237;48.590;8.854;2022-08-19T11:12:45;22.10;99.90
18225;DHT22;9237;48.590;8.854;2022-08-19T11:15:13;22.10;99.90
18225;DHT22;9237;48.590;8.854;2022-08-19T11:17:41;22.10;99.90
18225;DHT22;9237;48.590;8.854;2022-08-19T11:20:10;22.10;99.90
18225;DHT22;9237;48.590;8.854;2022-08-19T11:22:39;22.30;99.90
18225;DHT22;9237;48.590;8.854;2022-08-19T11:25:07;22.40;99.90
18225;DHT22;9237;48.590;8.854;2022-08-19T11:27:38;22.60;99.90
18225;DHT22;9237;48.590;8.854;2022-08-19T11:30:08;22.60;99.90
18225;DHT22;9237;48.590;8.854;2022-08-19T11:32:36;22.40;99.90
18225;DHT22;9237;48.590;8.854;2022-08-19T11:35:03;22.40;99.90
18225;DHT22;9237;48.590;8.854;2022-08-19T11:37:30;22.30;99.90
18225;DHT22;9237;48.590;8.854;2022-08-19T11:39:59;22.40;99.90
18225;DHT22;9237;48.590;8.854;2022-08-19T11:42:27;22.40;99.90
18225;DHT22;9237;48.590;8.854;2022-08-19T11:45:16;22.30;99.90
18225;DHT22;9237;48.590;8.854;2022-08-19T11:47:49;22.30;99.90
18225;DHT22;9237;48.590;8.854;2022-08-19T11:50:16;22.20;99.90
18225;DHT22;9237;48.590;8.854;2022-08-19T11:52:45;22.20;99.90
18225;DHT22;9237;48.590;8.854;2022-08-19T11:55:16;22.30;99.90
18225;DHT22;9237;48.590;8.854;2022-08-19T11:57:44;22.30;99.90
18225;DHT22;9237;48.590;8.854;2022-08-19T12:00:13;22.30;99.90
18225;DHT22;9237;48.590;8.854;2022-08-19T12:02:40;22.40;99.90
18225;DHT22;9237;48.590;8.854;2022-08-19T12:05:08;22.50;99.90
18225;DHT22;9237;48.590;8.854;2022-08-19T12:07:35;22.60;99.90
18225;DHT22;9237;48.590;8.854;2022-08-19T12:10:03;22.80;99.90
18225;DHT22;9237;48.590;8.854;2022-08-19T12:12:32;22.90;99.90
18225;DHT22;9237;48.590;8.854;2022-08-19T12:14:59;23.20;99.90
18225;DHT22;9237;48.590;8.854;2022-08-19T12:17:26;23.40;99.90
18225;DHT22;9237;48.590;8.854;2022-08-19T12:19:54;23.60;99.90
18225;DHT22;9237;48.590;8.854;2022-08-19T12:22:21;23.70;99.90
18225;DHT22;9237;48.590;8.854;2022-08-19T12:24:48;23.70;99.90
18225;DHT22;9237;48.590;8.854;2022-08-19T12:27:18;23.70;99.90
18225;DHT22;9237;48.590;8.854;2022-08-19T12:29:46;23.80;99.90
18225;DHT22;9237;48.590;8.854;2022-08-19T12:32:13;23.80;99.90
18225;DHT22;9237;48.590;8.854;2022-08-19T12:34:39;24.00;99.90
18225;DHT22;9237;48.590;8.854;2022-08-19T12:37:07;24.20;99.90
18225;DHT22;9237;48.590;8.854;2022-08-19T12:39:36;24.40;99.90
18225;DHT22;9237;48.590;8.854;2022-08-19T12:42:04;24.50;99.90
18225;DHT22;9237;48.590;8.854;2022-08-19T12:44:31;24.80;99.90
18225;DHT22;9237;48.590;8.854;2022-08-19T12:47:00;25.20;99.90
18225;DHT22;9237;48.590;8.854;2022-08-19T12:49:28;25.30;99.90
18225;DHT22;9237;48.590;8.854;2022-08-19T12:51:55;25.30;99.90
18225;DHT22;9237;48.590;8.854;2022-08-19T12:54:23;25.60;99.90
18225;DHT22;9237;48.590;8.854;2022-08-19T12:56:50;25.70;99.90
18225;DHT22;9237;48.590;8.854;2022-08-19T12:59:17;25.80;99.90
18225;DHT22;9237;48.590;8.854;2022-08-19T13:01:45;25.60;99.80
18225;DHT22;9237;48.590;8.854;2022-08-19T13:04:21;25.70;99.50
18225;DHT22;9237;48.590;8.854;2022-08-19T13:06:54;25.70;98.70
18225;DHT22;9237;48.590;8.854;2022-08-19T13:09:22;26.20;98.40
18225;DHT22;9237;48.590;8.854;2022-08-19T13:11:49;26.30;97.40
18225;DHT22;9237;48.590;8.854;2022-08-19T13:14:15;26.10;96.90
18225;DHT22;9237;48.590;8.854;2022-08-19T13:16:42;25.60;96.90
18225;DHT22;9237;48.590;8.854;2022-08-19T13:19:09;25.30;99.00
18225;DHT22;9237;48.590;8.854;2022-08-19T13:21:39;24.80;99.90
18225;DHT22;9237;48.590;8.854;2022-08-19T13:24:06;24.80;99.90
18225;DHT22;9237;48.590;8.854;2022-08-19T13:26:33;24.70;99.90
18225;DHT22;9237;48.590;8.854;2022-08-19T13:29:00;25.00;99.90
18225;DHT22;9237;48.590;8.854;2022-08-19T13:31:44;25.10;99.90
18225;DHT22;9237;48.590;8.854;2022-08-19T13:34:31;25.00;99.90
18225;DHT22;9237;48.590;8.854;2022-08-19T13:37:01;25.10;99.90
18225;DHT22;9237;48.590;8.854;2022-08-19T13:39:29;25.10;99.90
18225;DHT22;9237;48.590;8.854;2022-08-19T13:41:58;24.90;99.90
18225;DHT22;9237;48.590;8.854;2022-08-19T13:44:27;25.10;99.90
18225;DHT22;9237;48.590;8.854;2022-08-19T13:46:59;25.20;99.90
18225;DHT22;9237;48.590;8.854;2022-08-19T13:49:27;25.20;99.90
18225;DHT22;9237;48.590;8.854;2022-08-19T13:51:56;25.00;99.90
18225;DHT22;9237;48.590;8.854;2022-08-19T13:54:25;25.40;99.90
18225;DHT22;9237;48.590;8.854;2022-08-19T13:56:52;25.70;99.90
18225;DHT22;9237;48.590;8.854;2022-08-19T13:59:19;25.90;99.90
18225;DHT22;9237;48.590;8.854;2022-08-19T14:01:46;26.20;99.40
18225;DHT22;9237;48.590;8.854;2022-08-19T14:04:13;26.40;98.90
18225;DHT22;9237;48.590;8.854;2022-08-19T14:06:39;26.30;97.80
18225;DHT22;9237;48.590;8.854;2022-08-19T14:09:06;26.30;98.80
18225;DHT22;9237;48.590;8.854;2022-08-19T14:11:35;26.20;97.70
18225;DHT22;9237;48.590;8.854;2022-08-19T14:14:02;26.00;97.60
18225;DHT22;9237;48.590;8.854;2022-08-19T14:16:29;25.70;97.70
18225;DHT22;9237;48.590;8.854;2022-08-19T14:18:58;25.60;98.40
18225;DHT22;9237;48.590;8.854;2022-08-19T14:21:25;25.50;98.50
18225;DHT22;9237;48.590;8.854;2022-08-19T14:23:52;25.80;98.50
18225;DHT22;9237;48.590;8.854;2022-08-19T14:26:21;26.80;97.10
18225;DHT22;9237;48.590;8.854;2022-08-19T14:28:49;26.60;96.50
18225;DHT22;9237;48.590;8.854;2022-08-19T14:31:18;26.30;97.00
18225;DHT22;9237;48.590;8.854;2022-08-19T14:33:48;25.90;97.50
18225;DHT22;9237;48.590;8.854;2022-08-19T14:36:15;25.30;97.50
18225;DHT22;9237;48.590;8.854;2022-08-19T14:38:43;24.90;98.60
18225;DHT22;9237;48.590;8.854;2022-08-19T14:41:12;24.90;98.30
18225;DHT22;9237;48.590;8.854;2022-08-19T14:43:42;24.80;98.60
18225;DHT22;9237;48.590;8.854;2022-08-19T14:46:13;24.70;99.00
18225;DHT22;9237;48.590;8.854;2022-08-19T14:48:41;24.80;99.60
18225;DHT22;9237;48.590;8.854;2022-08-19T14:51:08;24.90;99.20
18225;DHT22;9237;48.590;8.854;2022-08-19T14:53:35;24.90;99.20
18225;DHT22;9237;48.590;8.854;2022-08-19T14:56:07;24.80;99.30
18225;DHT22;9237;48.590;8.854;2022-08-19T14:58:34;24.60;99.60
18225;DHT22;9237;48.590;8.854;2022-08-19T15:01:01;24.70;99.90
18225;DHT22;9237;48.590;8.854;2022-08-19T15:03:31;24.80;99.40
18225;DHT22;9237;48.590;8.854;2022-08-19T15:05:59;24.80;99.20
18225;DHT22;9237;48.590;8.854;2022-08-19T15:08:28;24.80;99.60
18225;DHT22;9237;48.590;8.854;2022-08-19T15:10:57;24.90;99.30
18225;DHT22;9237;48.590;8.854;2022-08-19T15:13:25;24.70;99.40
18225;DHT22;9237;48.590;8.854;2022-08-19T15:15:53;24.80;99.50
18225;DHT22;9237;48.590;8.854;2022-08-19T15:18:20;24.60;99.30
18225;DHT22;9237;48.590;8.854;2022-08-19T15:20:49;24.40;99.90
18225;DHT22;9237;48.590;8.854;2022-08-19T15:23:17;24.20;99.90
18225;DHT22;9237;48.590;8.854;2022-08-19T15:25:45;24.20;99.90
18225;DHT22;9237;48.590;8.854;2022-08-19T15:28:12;24.10;99.90
18225;DHT22;9237;48.590;8.854;2022-08-19T15:30:41;24.10;99.90
18225;DHT22;9237;48.590;8.854;2022-08-19T15:33:10;24.10;99.90
18225;DHT22;9237;48.590;8.854;2022-08-19T15:35:40;24.10;99.90
18225;DHT22;9237;48.590;8.854;2022-08-19T15:38:09;24.10;99.90
18225;DHT22;9237;48.590;8.854;2022-08-19T15:40:38;24.10;99.90
18225;DHT22;9237;48.590;8.854;2022-08-19T15:43:06;24.10;99.90
18225;DHT22;9237;48.590;8.854;2022-08-19T15:45:33;24.10;99.90
18225;DHT22;9237;48.590;8.854;2022-08-19T15:48:01;24.10;99.90
18225;DHT22;9237;48.590;8.854;2022-08-19T15:50:29;24.10;99.70
18225;DHT22;9237;48.590;8.854;2022-08-19T15:52:59;24.10;99.50
18225;DHT22;9237;48.590;8.854;2022-08-19T15:55:30;24.20;99.90